Kezdőlap
METAR-TAF:

METAR-TAF

Repülőterek :

Tiencsin, Kína

földrajzi szélesség: 39-11N, földrajzi hosszúság: 117-21E, magasság: 3 m

Jelenlegi meteorológiai megfigyelések

A jelentés 25 perccel ezelõtt készült, 18:30 UTC
Nyugati szél 4 kt
Hőmérséklet 23°C
Páratartalom 57%
Légköri nyomás 1010 hPa
Látótávolság 10 km, vagy több
felhőtlen 1500 m magasságban, és nincs gomolyfelhõ

METAR: ZBTJ 221830Z 27002MPS CAVOK 23/14 Q1010 NOSIG

Idő: 02:55 (18:55 UTC)

Előrejelzés

A jelentés 3 órával és 42 perccel ezelõtt készült, 15:13 UTC
Az előrejelzés 22-én 18 óra UTC és 23-én 18 óra UTC között érvényes
Észak-északnyugati szél 8 kt
Látótávolság: 5000 m
Száraz légköri homály

TAF: ZBTJ 221513Z 2218/2318 34004MPS 5000 HZ NSC TX29/2307Z TN20/2221Z

Meteorológiai megfigyelések és előrejelzések több, mint 4000 repülőtéren (METAR és TAF jelentéseket).

A térképen piros és sárga pontok jelzik az elérhető meteorológiai állomásokat.

Mozgassa az egeret a pont fölött, hogy megjelenjen az állomás neve.

Azután kattintson az időjárási megfigyelések és előrejelzések megtekintéséhez.

A térkép megváltoztatása: kattintson a fekete keresztel jelölt zöld gombra ráközelítéshez, a vonallal jelölt zöld gombra távolításhoz, vagy a zöld nyilakra a szomszédos térképek eléréséhez.


METAR-TAF: